Terminal Aerodrome Forecast
Issued by NWS

Home | Current Version | Previous Version | Text Only | Print | Product List | Glossary On
Versions: 1 2 3 4 5 6 7 8 9 10 11 12 13 14 15 16 17 18 19 20 21 22 23 24 25 26 27 28 29
000
FTUS43 KDLH 202100 AAA
TAFBRD
TAF AMD
KBRD 202112Z 2021/2118 29011KT P6SM TSRA SCT020CB BKN045
      TEMPO 2021/2023 VRB15G25KT 4SM TSRA BKN020CB
     FM202300 29012KT P6SM SCT015 BKN045
      TEMPO 2023/2102 5SM SHRA BR BKN015
     FM210300 31013KT P6SM VCSH BKN015
     FM211400 33007KT P6SM BKN020=

USA.gov is the U.S. government's official web portal to all federal, state and local government web resources and services.